Aeroporto :
LOGIN :

Iscrizione | Disclaimer

   EN    FR    IT 

 










Sommario :    VFR   VFR Marginale   IFR   IFR Intensivo   IFR Molto Intensivo
Visibilità : 
Base nubi : 
>= 8 km
>= 3000ft
5 / 8 km
1000 / 3000 ft
1500m / 5 km
500 / 1000 ft
800 / 1500m
200 / 500 ft
< 800m
< 200 ft
Simboli :   Temporali  Nebbia  Neve Forte  Precipitazioni Forti  Vento > 20 kt
SIGMETs :   Varie  Temporali  Ghiacco  Turbolenza  Onda orograficha  Ceneri Vulcaniche






- Altitudine del aeroporto : 681 ft
- Codice IATA : LBA


EGNM - Leeds Bradford

ULTIMO METAR :
  • 011450Z 26013KT 9999 BKN042 07/02 Q1020

METARs OBSOLETI :
  • 011420Z 28012KT 250V310 9999 BKN037 08/00 Q1020
  • 011350Z 26011KT 220V290 9999 BKN040 09/00 Q1020
  • 011320Z 28012KT 9999 BKN040 08/01 Q1021
  • 011250Z 29012KT 9999 BKN043 08/M00 Q1021
  • 011220Z 26010KT 9999 BKN045 08/M01 Q1021

TAF TAF EGNM
Valido dal 01 a 12 ore il 01 a 16 ore UTC


011101Z 0112/0116 30012KT 9999 SCT045
PROB30
TEMPO 0112/0116 8000 -SHRA
ATIS : +44 113 250 9696 (x2489)



MetMap, La meteo Aeronautica in un colpo d'occhio ! - Copyright ORBIFLY Dicembre 2007 - Disclaimer

ORBIFLY MET'MAP TEAM :

Programmazione e sviluppo : Alexandra Zaïnal
Concezione : Baudouin d'Aumeries
Aiuto per la programmazione : Marc-Olivier Méhu
Supporto tecnico e logistico : Manuel Goepfert
Aiuto per la traduzione : Arnaldo La Scala

Contatto : metmap@orbifly.com




FONTI E CREDITI :

   NOAA